METAR stanice u blizini

 

LYBE - Beograd / Surčin, Srbija
Ažurirano: 15/07/2024 09:00
Vedro
Vedro
 Pravac vetra JJZ
Vetar: JJZ 9 km/h
Temperatura: 28°C
Heat Index: 30°C
Tačka rose: 21°C
Vlažnost: 66%
Pritisak: 1013 hPa
Pregled: Vedro
Vidljivost: greater than 10 km
2024/07/15 07:00 LYBE 150700Z 20005KT 140V260 CAVOK 28/21 Q1013 NOSIG
LYBT - Beograd / Batajnica, Srbija
Ažurirano: 15/07/2024 09:00
Vedro
Vedro
 Pravac vetra Z
Vetar: Z 6 km/h
Temperatura: 28°C
Heat Index: 31°C
Tačka rose: 23°C
Vlažnost: 74%
Pritisak: 1013 hPa
Pregled: Vedro
Vidljivost: greater than 10 km
2024/07/15 07:00 LYBT 150700Z 27003KT 240V330 CAVOK 28/23 Q1013 NOSIG
LYVR - Vršac, Srbija
Ažurirano: 15/07/2024 09:00
Vedro
Vedro
 Pravac vetra J
Vetar: J 15 km/h
Temperatura: 31°C
Heat Index: 33°C
Tačka rose: 20°C
Vlažnost: 52%
Pritisak: 1013 hPa
Pregled: Vedro
Vidljivost: greater than 10 km
2024/07/15 07:00 LYVR 150700Z 19008KT 160V220 CAVOK 31/20 Q1013 NOSIG
 
LYKV - Lađevci, Srbija
Ažurirano: 15/07/2024 09:00
Vedro
Vedro
 Pravac vetra SZ
Vetar: SZ 6 km/h
Temperatura: 27°C
Heat Index: 28°C
Tačka rose: 18°C
Vlažnost: 58%
Pritisak: 1014 hPa
Pregled: Vedro
Vidljivost: greater than 10 km
2024/07/15 07:00 LYKV 150700Z 31003KT 260V010 CAVOK 27/18 Q1014 NOSIG
LYNI - Niš, Srbija
Ažurirano: 15/07/2024 09:00
Vedro
Vedro
 Pravac vetra varies
Vetar: varies 4 km/h
Temperatura: 29°C
Heat Index: 29°C
Tačka rose: 16°C
Vlažnost: 45%
Pritisak: 1015 hPa
Pregled: Vedro
Vidljivost: greater than 10 km
2024/07/15 07:00 LYNI 150700Z VRB02KT CAVOK 29/16 Q1015 NOSIG
BKPR - Priština, Srbija
Ažurirano: 15/07/2024 09:30
Vedro
Vedro
 Pravac vetra SSI
Vetar: SSI 6 km/h
Temperatura: 27°C
Heat Index: 28°C
Tačka rose: 17°C
Vlažnost: 54%
Pritisak: 1016 hPa
Pregled: Vedro
Vidljivost: greater than 10 km
2024/07/15 07:30 BKPR 150730Z 02003KT 320V040 CAVOK 27/17 Q1016 NOSIG
 
LHPP - Pecs / Pogany, Hungary
Ažurirano: 15/07/2024 09:15
Vedro
Vedro
 Pravac vetra I
Vetar: I 11 km/h
Temperatura: 30°C
Heat Index: 32°C
Tačka rose: 20°C
Vlažnost: 55%
Pritisak: 1014 hPa
Pregled: Vedro
Vidljivost: greater than 10 km
2024/07/15 07:15 LHPP 150715Z AUTO 08006KT 030V130 CAVOK 30/20 Q1014
LHUD - Szeged, Hungary
Ažurirano: 04/07/2019 01:45
NOT Current
Vedro
Vedro
 Pravac vetra S
Vetar: S 7 km/h
Temperatura: 18°C
Tačka rose: 13°C
Vlažnost: 73%
Pritisak: 1019 hPa
Pregled: Vedro
Vidljivost: greater than 10 km
2019/07/03 23:45 LHUD 032345Z 35004KT CAVOK 18/13 Q1019
LRTR - Timisoara, Romania
Ažurirano: 15/07/2024 09:00
Vedro
Vedro
 Pravac vetra J
Vetar: J 13 km/h
Temperatura: 29°C
Heat Index: 31°C
Tačka rose: 20°C
Vlažnost: 58%
Pritisak: 1013 hPa
Pregled: Vedro
Vidljivost: greater than 10 km
2024/07/15 07:00 LRTR 150700Z 17007KT CAVOK 29/20 Q1013
 
LRCV - Craiova, Romania
Ažurirano: 15/07/2024 09:00
Vedro
Vedro
 Pravac vetra JI
Vetar: JI 17 km/h
Temperatura: 32°C
Tačka rose: 11°C
Vlažnost: 27%
Pritisak: 1014 hPa
Pregled: Vedro
Vidljivost: greater than 10 km
2024/07/15 07:00 LRCV 150700Z 13009KT CAVOK 32/11 Q1014
LBSF - Sofia, Bulgaria
Ažurirano: 15/07/2024 09:30
Vedro
Vedro
 Pravac vetra varies
Vetar: varies 6 km/h
Temperatura: 28°C
Tačka rose: 12°C
Vlažnost: 37%
Pritisak: 1016 hPa
Pregled: Vedro
Vidljivost: greater than 10 km
2024/07/15 07:30 LBSF 150730Z VRB03KT CAVOK 28/12 Q1016 NOSIG
LWSK - Skoplje, Makedonija
Ažurirano: 15/07/2024 08:50
Vedro
Vedro
 Pravac vetra J
Vetar: J 4 km/h
Temperatura: 31°C
Heat Index: 32°C
Tačka rose: 18°C
Vlažnost: 46%
Pritisak: 1014 hPa
Pregled: Vedro
Vidljivost: greater than 10 km
2024/07/15 06:50 LWSK 150650Z 17002KT CAVOK 31/18 Q1014 NOSIG
 
LYPG - Podgorica, Crna Gora
Ažurirano: 15/07/2024 09:30
Vedro
Vedro
 Pravac vetra varies
Vetar: varies 4 km/h
Temperatura: 32°C
Heat Index: 34°C
Tačka rose: 19°C
Vlažnost: 46%
Pritisak: 1011 hPa
Pregled: Vedro
Vidljivost: greater than 10 km
2024/07/15 07:30 LYPG 150730Z VRB02KT CAVOK 32/19 Q1011 NOSIG
LQSA - Sarajevo, Bosna i Hercegovina
Ažurirano: 15/07/2024 09:00
Few Clouds
Few Clouds
 Pravac vetra varies
Vetar: varies 4 km/h
Temperatura: 25°C
Tačka rose: 18°C
Vlažnost: 65%
Pritisak: 1016 hPa
Oblaci: Few Clouds
Vidljivost: 10 km
Cloud details: Few Clouds 1219 m
2024/07/15 07:00 LQSA 150700Z VRB02KT 9999 FEW040 25/18 Q1016 NOSIG
LDOS - Osijek, Hrvatksa
Ažurirano: 15/07/2024 09:30
Vedro
Vedro
 Pravac vetra SSZ
Vetar: SSZ 7 km/h
Temperatura: 29°C
Heat Index: 32°C
Tačka rose: 22°C
Vlažnost: 66%
Pritisak: 1013 hPa
Pregled: Vedro
Vidljivost: greater than 10 km
2024/07/15 07:30 LDOS 150730Z 33004KT 270V080 CAVOK 29/22 Q1013